CYSJ

Saint John Airport

Airport
ICAO code
CYSJ
IATA Code
YSJ
Summary
ICAO Region
NAM
ICAO Territory
Location

Saint John, New Brunswick,

Serving
Saint John
Elevation
357 ft
Coordinates
45° 19' 45" N , 65° 53' 25" W
KCC
Metar
CYSJ 270640Z 09006KT 2SM BR OVC002 08/08 A3018 RMK ST8 SLP225

Description

Saint John Airport is an airport located 8 nm east northeast of Saint John, New Brunswick, Canada.

Climatology

Humid Continental climate (Köppen climate classification Dfb) - Variable weather patterns and a large seasonal temperature variance. Summers are often warm and humid with frequent thunderstorms and winters can be very cold with frequent snowfall and persistent snow cover.

Runways

Designator Length Width Surface Rops
14/32 1554 61 ASP Yes/Yes
5/23 2134 61 ASP Yes/Yes

Airport map

Aerial View

SKYbrary Partners:

Safety knowledge contributed by: